sensor_id;sensor_type;location;lat;lon;timestamp;pressure;altitude;pressure_sealevel;temperature;humidity
63883;BME280;50047;50.596;30.466;2023-07-13T00:02:02;99068.88;;;19.11;56.15
63883;BME280;50047;50.596;30.466;2023-07-13T00:04:29;99059.77;;;19.10;56.37
63883;BME280;50047;50.596;30.466;2023-07-13T00:06:59;99055.48;;;19.10;56.73
63883;BME280;50047;50.596;30.466;2023-07-13T00:09:27;99058.26;;;19.11;56.89
63883;BME280;50047;50.596;30.466;2023-07-13T00:11:55;99052.58;;;19.12;57.18
63883;BME280;50047;50.596;30.466;2023-07-13T00:14:25;99052.54;;;19.14;57.70
63883;BME280;50047;50.596;30.466;2023-07-13T00:16:53;99046.48;;;19.15;58.39
63883;BME280;50047;50.596;30.466;2023-07-13T00:19:21;99044.67;;;19.17;58.23
63883;BME280;50047;50.596;30.466;2023-07-13T00:21:49;99040.66;;;19.20;58.17
63883;BME280;50047;50.596;30.466;2023-07-13T00:24:17;99033.95;;;19.22;58.08
63883;BME280;50047;50.596;30.466;2023-07-13T00:26:49;99032.80;;;19.25;58.21
63883;BME280;50047;50.596;30.466;2023-07-13T00:29:16;99029.66;;;19.27;58.71
63883;BME280;50047;50.596;30.466;2023-07-13T00:31:44;99021.09;;;19.27;58.20
63883;BME280;50047;50.596;30.466;2023-07-13T00:34:11;99021.02;;;19.28;58.22
63883;BME280;50047;50.596;30.466;2023-07-13T00:36:39;99019.91;;;19.27;58.38
63883;BME280;50047;50.596;30.466;2023-07-13T00:39:06;99012.19;;;19.25;58.25
63883;BME280;50047;50.596;30.466;2023-07-13T00:41:33;99011.05;;;19.22;58.24
63883;BME280;50047;50.596;30.466;2023-07-13T00:44:01;99006.42;;;19.21;58.11
63883;BME280;50047;50.596;30.466;2023-07-13T00:46:31;99010.89;;;19.19;58.02
63883;BME280;50047;50.596;30.466;2023-07-13T00:49:01;99005.90;;;19.17;57.98
63883;BME280;50047;50.596;30.466;2023-07-13T00:51:37;99005.66;;;19.15;57.84
63883;BME280;50047;50.596;30.466;2023-07-13T00:54:12;99006.73;;;19.14;57.84
63883;BME280;50047;50.596;30.466;2023-07-13T00:56:41;99003.40;;;19.12;57.85
63883;BME280;50047;50.596;30.466;2023-07-13T00:59:11;98999.11;;;19.09;57.91
63883;BME280;50047;50.596;30.466;2023-07-13T01:01:41;98998.25;;;19.07;57.82
63883;BME280;50047;50.596;30.466;2023-07-13T01:04:09;98993.85;;;19.05;57.87
63883;BME280;50047;50.596;30.466;2023-07-13T01:06:39;98997.19;;;19.04;57.99
63883;BME280;50047;50.596;30.466;2023-07-13T01:09:07;98997.27;;;19.02;58.02
63883;BME280;50047;50.596;30.466;2023-07-13T01:11:34;98994.72;;;18.99;58.08
63883;BME280;50047;50.596;30.466;2023-07-13T01:14:03;98994.67;;;18.97;58.30
63883;BME280;50047;50.596;30.466;2023-07-13T01:16:34;98992.04;;;18.95;58.29
63883;BME280;50047;50.596;30.466;2023-07-13T01:19:09;98994.03;;;18.93;58.49
63883;BME280;50047;50.596;30.466;2023-07-13T01:21:42;98993.92;;;18.90;58.54
63883;BME280;50047;50.596;30.466;2023-07-13T01:24:09;98995.54;;;18.88;58.59
63883;BME280;50047;50.596;30.466;2023-07-13T01:26:36;98996.81;;;18.85;58.73
63883;BME280;50047;50.596;30.466;2023-07-13T01:29:07;98993.30;;;18.83;58.98
63883;BME280;50047;50.596;30.466;2023-07-13T01:31:35;98993.27;;;18.81;58.90
63883;BME280;50047;50.596;30.466;2023-07-13T01:34:02;98997.77;;;18.80;58.86
63883;BME280;50047;50.596;30.466;2023-07-13T01:36:30;98990.79;;;18.79;59.06
63883;BME280;50047;50.596;30.466;2023-07-13T01:38:58;98985.95;;;18.74;59.29
63883;BME280;50047;50.596;30.466;2023-07-13T01:41:25;98992.30;;;18.68;59.29
63883;BME280;50047;50.596;30.466;2023-07-13T01:43:53;98986.14;;;18.62;59.53
63883;BME280;50047;50.596;30.466;2023-07-13T01:46:20;98985.76;;;18.53;59.51
63883;BME280;50047;50.596;30.466;2023-07-13T01:48:51;98982.91;;;18.46;59.92
63883;BME280;50047;50.596;30.466;2023-07-13T01:51:19;98981.66;;;18.38;60.07
63883;BME280;50047;50.596;30.466;2023-07-13T01:53:49;98984.92;;;18.32;60.22
63883;BME280;50047;50.596;30.466;2023-07-13T01:56:16;98986.94;;;18.25;60.52
63883;BME280;50047;50.596;30.466;2023-07-13T01:58:45;98987.79;;;18.19;60.79
63883;BME280;50047;50.596;30.466;2023-07-13T02:01:12;98987.96;;;18.16;60.78
63883;BME280;50047;50.596;30.466;2023-07-13T02:03:39;98988.05;;;18.12;61.19
63883;BME280;50047;50.596;30.466;2023-07-13T02:06:08;98986.71;;;18.07;61.17
63883;BME280;50047;50.596;30.466;2023-07-13T02:08:37;98986.95;;;18.06;61.92
63883;BME280;50047;50.596;30.466;2023-07-13T02:11:10;98985.05;;;18.09;61.34
63883;BME280;50047;50.596;30.466;2023-07-13T02:13:36;98981.38;;;18.12;61.67
63883;BME280;50047;50.596;30.466;2023-07-13T02:16:03;98977.98;;;18.12;61.65
63883;BME280;50047;50.596;30.466;2023-07-13T02:18:34;98978.92;;;18.09;61.38
63883;BME280;50047;50.596;30.466;2023-07-13T02:21:01;98977.62;;;18.07;61.96
63883;BME280;50047;50.596;30.466;2023-07-13T02:23:33;98978.77;;;18.06;61.81
63883;BME280;50047;50.596;30.466;2023-07-13T02:26:03;98983.09;;;18.06;62.04
63883;BME280;50047;50.596;30.466;2023-07-13T02:28:30;98986.45;;;18.07;61.96
63883;BME280;50047;50.596;30.466;2023-07-13T02:31:11;98982.96;;;18.08;61.54
63883;BME280;50047;50.596;30.466;2023-07-13T02:33:41;98980.84;;;18.12;61.89
63883;BME280;50047;50.596;30.466;2023-07-13T02:36:09;98983.13;;;18.14;61.80
63883;BME280;50047;50.596;30.466;2023-07-13T02:38:36;98980.86;;;18.17;61.82
63883;BME280;50047;50.596;30.466;2023-07-13T02:41:05;98981.77;;;18.21;62.28
63883;BME280;50047;50.596;30.466;2023-07-13T02:43:33;98984.38;;;18.29;61.66
63883;BME280;50047;50.596;30.466;2023-07-13T02:46:01;98987.36;;;18.52;61.27
63883;BME280;50047;50.596;30.466;2023-07-13T02:48:37;98991.23;;;18.81;60.67
63883;BME280;50047;50.596;30.466;2023-07-13T02:51:05;98985.90;;;19.29;59.84
63883;BME280;50047;50.596;30.466;2023-07-13T02:53:33;98988.80;;;19.92;58.60
63883;BME280;50047;50.596;30.466;2023-07-13T02:56:00;98981.05;;;20.60;57.21
63883;BME280;50047;50.596;30.466;2023-07-13T02:58:28;98979.31;;;21.30;55.82
63883;BME280;50047;50.596;30.466;2023-07-13T03:00:57;98975.75;;;22.08;54.54
63883;BME280;50047;50.596;30.466;2023-07-13T03:03:26;98981.09;;;22.65;53.16
63883;BME280;50047;50.596;30.466;2023-07-13T03:05:59;98978.06;;;23.27;52.49
63883;BME280;50047;50.596;30.466;2023-07-13T03:08:29;98975.55;;;23.90;50.83
63883;BME280;50047;50.596;30.466;2023-07-13T03:11:00;98969.56;;;24.50;49.49
63883;BME280;50047;50.596;30.466;2023-07-13T03:13:29;98970.92;;;24.98;48.81
63883;BME280;50047;50.596;30.466;2023-07-13T03:15:57;98975.43;;;25.27;47.39
63883;BME280;50047;50.596;30.466;2023-07-13T03:18:28;98975.73;;;25.57;46.47
63883;BME280;50047;50.596;30.466;2023-07-13T03:20:57;98979.27;;;25.84;45.95
63883;BME280;50047;50.596;30.466;2023-07-13T03:23:26;98982.02;;;26.03;44.81
63883;BME280;50047;50.596;30.466;2023-07-13T03:26:22;98983.84;;;26.06;44.76
63883;BME280;50047;50.596;30.466;2023-07-13T03:28:49;98985.22;;;25.96;44.67
63883;BME280;50047;50.596;30.466;2023-07-13T03:31:24;98985.53;;;26.02;44.76
63883;BME280;50047;50.596;30.466;2023-07-13T03:33:52;98983.03;;;26.26;43.93
63883;BME280;50047;50.596;30.466;2023-07-13T03:36:22;98980.36;;;26.58;43.37
63883;BME280;50047;50.596;30.466;2023-07-13T03:38:55;98975.95;;;26.95;42.80
63883;BME280;50047;50.596;30.466;2023-07-13T03:41:26;98974.89;;;27.52;41.72
63883;BME280;50047;50.596;30.466;2023-07-13T03:43:53;98974.41;;;28.20;40.59
63883;BME280;50047;50.596;30.466;2023-07-13T03:46:21;98974.88;;;28.80;39.84
63883;BME280;50047;50.596;30.466;2023-07-13T03:48:48;98977.43;;;29.41;38.46
63883;BME280;50047;50.596;30.466;2023-07-13T03:51:16;98979.73;;;29.98;37.80
63883;BME280;50047;50.596;30.466;2023-07-13T03:53:45;98976.60;;;30.45;36.99
63883;BME280;50047;50.596;30.466;2023-07-13T03:56:15;98978.46;;;30.87;36.35
63883;BME280;50047;50.596;30.466;2023-07-13T03:58:45;98980.19;;;31.11;34.87
63883;BME280;50047;50.596;30.466;2023-07-13T04:01:18;98977.65;;;31.44;34.69
63883;BME280;50047;50.596;30.466;2023-07-13T04:03:46;98984.73;;;31.36;34.74
63883;BME280;50047;50.596;30.466;2023-07-13T04:06:27;98986.20;;;31.77;34.33
63883;BME280;50047;50.596;30.466;2023-07-13T04:08:56;98990.81;;;32.37;33.39
63883;BME280;50047;50.596;30.466;2023-07-13T04:11:27;98991.00;;;32.87;32.57
63883;BME280;50047;50.596;30.466;2023-07-13T04:13:55;98988.63;;;33.39;31.64
63883;BME280;50047;50.596;30.466;2023-07-13T04:16:23;98985.20;;;33.77;31.17
63883;BME280;50047;50.596;30.466;2023-07-13T04:18:51;98989.89;;;33.59;30.83
63883;BME280;50047;50.596;30.466;2023-07-13T04:21:21;98980.74;;;33.80;30.90
63883;BME280;50047;50.596;30.466;2023-07-13T04:23:49;98979.53;;;34.31;30.40
63883;BME280;50047;50.596;30.466;2023-07-13T04:26:16;98980.08;;;34.83;29.64
63883;BME280;50047;50.596;30.466;2023-07-13T04:28:43;98977.46;;;35.39;28.88
63883;BME280;50047;50.596;30.466;2023-07-13T04:31:12;98973.88;;;35.81;28.28
63883;BME280;50047;50.596;30.466;2023-07-13T04:33:39;98973.41;;;35.92;27.85
63883;BME280;50047;50.596;30.466;2023-07-13T04:36:06;98971.87;;;35.77;27.74
63883;BME280;50047;50.596;30.466;2023-07-13T04:38:34;98970.61;;;36.04;27.42
63883;BME280;50047;50.596;30.466;2023-07-13T04:41:02;98973.80;;;36.43;27.13
63883;BME280;50047;50.596;30.466;2023-07-13T04:43:31;98981.27;;;36.93;26.48
63883;BME280;50047;50.596;30.466;2023-07-13T04:46:07;98985.91;;;37.44;26.33
63883;BME280;50047;50.596;30.466;2023-07-13T04:48:36;98991.20;;;37.69;25.71
63883;BME280;50047;50.596;30.466;2023-07-13T04:51:04;98989.52;;;37.73;25.55
63883;BME280;50047;50.596;30.466;2023-07-13T04:53:33;98989.64;;;37.05;25.68
63883;BME280;50047;50.596;30.466;2023-07-13T04:56:02;98996.06;;;36.48;25.87
63883;BME280;50047;50.596;30.466;2023-07-13T04:58:30;98998.94;;;35.80;26.70
63883;BME280;50047;50.596;30.466;2023-07-13T05:01:05;98997.59;;;35.57;26.96
63883;BME280;50047;50.596;30.466;2023-07-13T05:03:33;98999.90;;;36.07;26.36
63883;BME280;50047;50.596;30.466;2023-07-13T05:06:06;99006.06;;;37.00;25.70
63883;BME280;50047;50.596;30.466;2023-07-13T05:08:33;99011.83;;;37.63;25.04
63883;BME280;50047;50.596;30.466;2023-07-13T05:11:03;99014.81;;;38.21;24.34
63883;BME280;50047;50.596;30.466;2023-07-13T05:13:31;99010.09;;;38.91;23.87
63883;BME280;50047;50.596;30.466;2023-07-13T05:16:02;98999.90;;;39.66;23.05
63883;BME280;50047;50.596;30.466;2023-07-13T05:18:30;98995.34;;;39.77;22.82
63883;BME280;50047;50.596;30.466;2023-07-13T05:21:08;98996.58;;;38.70;23.57
63883;BME280;50047;50.596;30.466;2023-07-13T05:23:37;98997.20;;;37.93;24.10
63883;BME280;50047;50.596;30.466;2023-07-13T05:26:04;99001.59;;;37.08;24.87
63883;BME280;50047;50.596;30.466;2023-07-13T05:28:36;98999.94;;;35.61;26.36
63883;BME280;50047;50.596;30.466;2023-07-13T05:31:05;98996.11;;;34.12;28.02
63883;BME280;50047;50.596;30.466;2023-07-13T05:33:33;98993.20;;;32.89;29.43
63883;BME280;50047;50.596;30.466;2023-07-13T05:36:00;98987.43;;;31.96;30.62
63883;BME280;50047;50.596;30.466;2023-07-13T05:38:28;98989.27;;;31.28;31.44
63883;BME280;50047;50.596;30.466;2023-07-13T05:40:56;98991.55;;;30.99;31.94
63883;BME280;50047;50.596;30.466;2023-07-13T05:43:23;98996.20;;;30.97;32.27
63883;BME280;50047;50.596;30.466;2023-07-13T05:45:52;98993.16;;;31.52;31.64
63883;BME280;50047;50.596;30.466;2023-07-13T05:48:20;98998.16;;;31.40;31.74
63883;BME280;50047;50.596;30.466;2023-07-13T05:50:49;99003.05;;;30.93;32.26
63883;BME280;50047;50.596;30.466;2023-07-13T05:53:16;98997.94;;;30.53;33.28
63883;BME280;50047;50.596;30.466;2023-07-13T05:55:44;98999.01;;;30.21;33.62
63883;BME280;50047;50.596;30.466;2023-07-13T05:58:14;98995.84;;;30.01;34.08
63883;BME280;50047;50.596;30.466;2023-07-13T06:00:41;98990.20;;;29.77;34.42
63883;BME280;50047;50.596;30.466;2023-07-13T06:03:08;98990.58;;;29.45;35.03
63883;BME280;50047;50.596;30.466;2023-07-13T06:05:38;98992.79;;;29.24;35.35
63883;BME280;50047;50.596;30.466;2023-07-13T06:08:06;98999.60;;;29.15;35.29
63883;BME280;50047;50.596;30.466;2023-07-13T06:10:35;98996.95;;;29.11;35.73
63883;BME280;50047;50.596;30.466;2023-07-13T06:13:02;98997.95;;;29.21;35.52
63883;BME280;50047;50.596;30.466;2023-07-13T06:15:30;98998.63;;;29.62;35.41
63883;BME280;50047;50.596;30.466;2023-07-13T06:17:57;98996.86;;;30.78;34.02
63883;BME280;50047;50.596;30.466;2023-07-13T06:20:24;99000.33;;;31.52;33.25
63883;BME280;50047;50.596;30.466;2023-07-13T06:22:51;99001.55;;;31.75;32.95
63883;BME280;50047;50.596;30.466;2023-07-13T06:25:19;99001.84;;;31.49;33.01
63883;BME280;50047;50.596;30.466;2023-07-13T06:27:46;99006.42;;;31.03;33.67
63883;BME280;50047;50.596;30.466;2023-07-13T06:31:08;99003.80;;;30.64;34.38
63883;BME280;50047;50.596;30.466;2023-07-13T06:33:37;98998.20;;;30.28;34.76
63883;BME280;50047;50.596;30.466;2023-07-13T06:36:09;98995.30;;;30.03;35.16
63883;BME280;50047;50.596;30.466;2023-07-13T06:38:37;98987.41;;;30.02;35.47
63883;BME280;50047;50.596;30.466;2023-07-13T06:41:07;98982.83;;;30.09;35.09
63883;BME280;50047;50.596;30.466;2023-07-13T06:43:36;98982.91;;;30.01;35.29
63883;BME280;50047;50.596;30.466;2023-07-13T06:46:04;98986.57;;;29.90;35.43
63883;BME280;50047;50.596;30.466;2023-07-13T06:48:32;98992.73;;;29.83;35.86
63883;BME280;50047;50.596;30.466;2023-07-13T06:50:59;98994.50;;;29.58;36.43
63883;BME280;50047;50.596;30.466;2023-07-13T06:53:29;98999.23;;;29.23;36.96
63883;BME280;50047;50.596;30.466;2023-07-13T06:55:57;99002.19;;;29.38;36.97
63883;BME280;50047;50.596;30.466;2023-07-13T06:58:25;99006.70;;;29.85;36.45
63883;BME280;50047;50.596;30.466;2023-07-13T07:00:53;99002.88;;;30.02;36.14
63883;BME280;50047;50.596;30.466;2023-07-13T07:03:21;99006.30;;;30.08;36.05
63883;BME280;50047;50.596;30.466;2023-07-13T07:05:48;99000.29;;;30.14;36.12
63883;BME280;50047;50.596;30.466;2023-07-13T07:08:16;99005.32;;;30.05;35.83
63883;BME280;50047;50.596;30.466;2023-07-13T07:10:44;99003.25;;;29.73;36.24
63883;BME280;50047;50.596;30.466;2023-07-13T07:13:12;99008.92;;;29.34;36.89
63883;BME280;50047;50.596;30.466;2023-07-13T07:15:40;99014.82;;;29.00;37.29
63883;BME280;50047;50.596;30.466;2023-07-13T07:18:08;99015.27;;;28.80;37.82
63883;BME280;50047;50.596;30.466;2023-07-13T07:20:36;99012.48;;;28.65;38.25
63883;BME280;50047;50.596;30.466;2023-07-13T07:23:03;99012.55;;;28.45;38.34
63883;BME280;50047;50.596;30.466;2023-07-13T07:25:31;99013.19;;;28.32;38.56
63883;BME280;50047;50.596;30.466;2023-07-13T07:28:01;99014.56;;;28.25;38.87
63883;BME280;50047;50.596;30.466;2023-07-13T07:30:32;99018.20;;;28.16;39.10
63883;BME280;50047;50.596;30.466;2023-07-13T07:33:03;99019.29;;;28.08;39.64
63883;BME280;50047;50.596;30.466;2023-07-13T07:35:32;99019.41;;;28.02;39.92
63883;BME280;50047;50.596;30.466;2023-07-13T07:38:07;99016.52;;;27.90;40.17
63883;BME280;50047;50.596;30.466;2023-07-13T07:40:40;99012.10;;;27.76;40.33
63883;BME280;50047;50.596;30.466;2023-07-13T07:43:12;99014.02;;;27.62;40.54
63883;BME280;50047;50.596;30.466;2023-07-13T07:45:41;99020.31;;;27.55;40.91
63883;BME280;50047;50.596;30.466;2023-07-13T07:48:08;99023.02;;;27.56;40.78
63883;BME280;50047;50.596;30.466;2023-07-13T07:50:37;99025.20;;;27.64;41.09
63883;BME280;50047;50.596;30.466;2023-07-13T07:53:07;99027.31;;;27.68;41.24
63883;BME280;50047;50.596;30.466;2023-07-13T07:55:35;99025.54;;;27.73;41.19
63883;BME280;50047;50.596;30.466;2023-07-13T07:58:06;99024.71;;;27.83;41.17
63883;BME280;50047;50.596;30.466;2023-07-13T08:00:54;99030.05;;;27.83;41.30
63883;BME280;50047;50.596;30.466;2023-07-13T08:03:24;99028.97;;;27.87;41.38
63883;BME280;50047;50.596;30.466;2023-07-13T08:05:55;99025.93;;;28.06;41.00
63883;BME280;50047;50.596;30.466;2023-07-13T08:08:43;99023.44;;;28.24;41.07
63883;BME280;50047;50.596;30.466;2023-07-13T08:11:11;99020.30;;;28.34;40.98
63883;BME280;50047;50.596;30.466;2023-07-13T08:13:42;99021.02;;;28.38;40.85
63883;BME280;50047;50.596;30.466;2023-07-13T08:16:10;99021.36;;;28.41;41.08
63883;BME280;50047;50.596;30.466;2023-07-13T08:18:39;99020.13;;;28.42;41.38
63883;BME280;50047;50.596;30.466;2023-07-13T08:21:08;99019.85;;;28.44;41.43
63883;BME280;50047;50.596;30.466;2023-07-13T08:23:37;99018.42;;;28.48;41.18
63883;BME280;50047;50.596;30.466;2023-07-13T08:26:05;99020.58;;;28.55;41.02
63883;BME280;50047;50.596;30.466;2023-07-13T08:28:33;99019.25;;;28.66;40.82
63883;BME280;50047;50.596;30.466;2023-07-13T08:31:04;99018.27;;;28.77;40.70
63883;BME280;50047;50.596;30.466;2023-07-13T08:33:34;99019.98;;;28.91;40.46
63883;BME280;50047;50.596;30.466;2023-07-13T08:36:03;99021.55;;;28.92;40.47
63883;BME280;50047;50.596;30.466;2023-07-13T08:38:32;99020.36;;;28.85;40.78
63883;BME280;50047;50.596;30.466;2023-07-13T08:41:14;99019.80;;;28.74;40.88
63883;BME280;50047;50.596;30.466;2023-07-13T08:43:46;99018.49;;;28.67;41.19
63883;BME280;50047;50.596;30.466;2023-07-13T08:46:36;99016.63;;;28.54;41.28
63883;BME280;50047;50.596;30.466;2023-07-13T08:49:10;99010.77;;;28.32;41.28
63883;BME280;50047;50.596;30.466;2023-07-13T08:54:41;99013.52;;;28.18;41.56
63883;BME280;50047;50.596;30.466;2023-07-13T08:57:13;99014.66;;;28.16;41.74
63883;BME280;50047;50.596;30.466;2023-07-13T08:59:41;99011.89;;;28.19;42.02
63883;BME280;50047;50.596;30.466;2023-07-13T09:02:56;99008.85;;;28.25;41.82
63883;BME280;50047;50.596;30.466;2023-07-13T09:05:31;99009.86;;;28.34;41.76
63883;BME280;50047;50.596;30.466;2023-07-13T09:10:53;99016.76;;;28.86;41.48
63883;BME280;50047;50.596;30.466;2023-07-13T09:16:27;99011.54;;;29.75;40.16
63883;BME280;50047;50.596;30.466;2023-07-13T09:19:00;99008.79;;;30.05;39.74
63883;BME280;50047;50.596;30.466;2023-07-13T09:21:36;99003.80;;;30.37;39.73
63883;BME280;50047;50.596;30.466;2023-07-13T09:24:38;99005.48;;;30.69;39.10
63883;BME280;50047;50.596;30.466;2023-07-13T09:27:39;99012.02;;;30.93;38.51
63883;BME280;50047;50.596;30.466;2023-07-13T09:32:47;99018.63;;;31.10;38.44
63883;BME280;50047;50.596;30.466;2023-07-13T09:35:23;99018.25;;;30.90;38.70
63883;BME280;50047;50.596;30.466;2023-07-13T09:38:03;99024.40;;;30.58;39.37
63883;BME280;50047;50.596;30.466;2023-07-13T09:43:31;99037.25;;;29.66;41.34
63883;BME280;50047;50.596;30.466;2023-07-13T09:45:59;99039.95;;;29.18;42.99
63883;BME280;50047;50.596;30.466;2023-07-13T09:48:34;99032.04;;;28.73;44.09
63883;BME280;50047;50.596;30.466;2023-07-13T09:51:13;99023.77;;;28.34;44.94
63883;BME280;50047;50.596;30.466;2023-07-13T09:53:43;99013.40;;;28.07;45.61
63883;BME280;50047;50.596;30.466;2023-07-13T09:56:37;99014.99;;;27.97;46.62
63883;BME280;50047;50.596;30.466;2023-07-13T09:59:19;99011.01;;;27.90;46.15
63883;BME280;50047;50.596;30.466;2023-07-13T10:01:47;99012.11;;;28.06;46.05
63883;BME280;50047;50.596;30.466;2023-07-13T10:04:22;99011.25;;;28.24;46.17
63883;BME280;50047;50.596;30.466;2023-07-13T10:07:08;99007.81;;;28.39;46.93
63883;BME280;50047;50.596;30.466;2023-07-13T10:10:00;99004.36;;;28.49;47.53
63883;BME280;50047;50.596;30.466;2023-07-13T10:12:30;98997.42;;;28.57;46.81
63883;BME280;50047;50.596;30.466;2023-07-13T10:15:03;98997.42;;;28.58;46.67
63883;BME280;50047;50.596;30.466;2023-07-13T10:17:54;98990.70;;;28.56;46.92
63883;BME280;50047;50.596;30.466;2023-07-13T10:20:24;98985.29;;;28.56;46.88
63883;BME280;50047;50.596;30.466;2023-07-13T10:25:30;98977.92;;;28.82;46.14
63883;BME280;50047;50.596;30.466;2023-07-13T10:28:04;98965.39;;;29.04;45.74
63883;BME280;50047;50.596;30.466;2023-07-13T10:30:40;98966.35;;;29.30;45.40
63883;BME280;50047;50.596;30.466;2023-07-13T10:33:12;98963.99;;;29.49;45.11
63883;BME280;50047;50.596;30.466;2023-07-13T10:35:43;98952.95;;;29.60;45.15
63883;BME280;50047;50.596;30.466;2023-07-13T10:38:14;98944.75;;;29.76;45.21
63883;BME280;50047;50.596;30.466;2023-07-13T10:40:56;98940.17;;;29.97;45.22
63883;BME280;50047;50.596;30.466;2023-07-13T10:43:28;98932.89;;;30.11;44.65
63883;BME280;50047;50.596;30.466;2023-07-13T10:45:59;98931.60;;;30.18;44.46
63883;BME280;50047;50.596;30.466;2023-07-13T10:48:28;98926.83;;;30.21;44.90
63883;BME280;50047;50.596;30.466;2023-07-13T10:50:57;98921.57;;;30.15;44.91
63883;BME280;50047;50.596;30.466;2023-07-13T10:53:33;98914.50;;;29.99;44.37
63883;BME280;50047;50.596;30.466;2023-07-13T10:56:30;98909.67;;;29.81;44.70
63883;BME280;50047;50.596;30.466;2023-07-13T10:59:24;98910.16;;;29.66;45.03
63883;BME280;50047;50.596;30.466;2023-07-13T11:02:08;98909.60;;;29.56;45.17
63883;BME280;50047;50.596;30.466;2023-07-13T11:04:43;98909.91;;;29.49;45.09
63883;BME280;50047;50.596;30.466;2023-07-13T11:07:51;98906.59;;;29.47;44.88
63883;BME280;50047;50.596;30.466;2023-07-13T11:16:45;98887.02;;;29.36;43.91
63883;BME280;50047;50.596;30.466;2023-07-13T11:24:56;98881.84;;;29.36;43.83
63883;BME280;50047;50.596;30.466;2023-07-13T11:35:37;98885.23;;;29.45;42.86
63883;BME280;50047;50.596;30.466;2023-07-13T11:38:15;98888.31;;;29.45;42.77
63883;BME280;50047;50.596;30.466;2023-07-13T11:40:46;98886.23;;;29.41;43.04
63883;BME280;50047;50.596;30.466;2023-07-13T11:43:22;98885.00;;;29.46;42.49
63883;BME280;50047;50.596;30.466;2023-07-13T11:45:53;98887.77;;;29.54;42.21
63883;BME280;50047;50.596;30.466;2023-07-13T11:48:29;98891.44;;;29.68;42.13
63883;BME280;50047;50.596;30.466;2023-07-13T11:51:04;98887.40;;;29.81;42.20
63883;BME280;50047;50.596;30.466;2023-07-13T11:53:45;98881.00;;;29.96;41.74
63883;BME280;50047;50.596;30.466;2023-07-13T11:56:14;98879.22;;;30.11;41.84
63883;BME280;50047;50.596;30.466;2023-07-13T11:58:42;98880.35;;;30.26;41.35
63883;BME280;50047;50.596;30.466;2023-07-13T12:01:27;98879.05;;;30.33;41.01
63883;BME280;50047;50.596;30.466;2023-07-13T12:04:04;98874.66;;;30.35;41.20
63883;BME280;50047;50.596;30.466;2023-07-13T12:06:35;98872.39;;;30.37;41.16
63883;BME280;50047;50.596;30.466;2023-07-13T12:09:13;98871.39;;;30.41;40.65
63883;BME280;50047;50.596;30.466;2023-07-13T12:11:43;98861.29;;;30.52;40.85
63883;BME280;50047;50.596;30.466;2023-07-13T12:14:14;98862.73;;;30.55;40.66
63883;BME280;50047;50.596;30.466;2023-07-13T12:16:43;98866.80;;;30.63;40.57
63883;BME280;50047;50.596;30.466;2023-07-13T12:19:21;98862.08;;;30.65;40.63
63883;BME280;50047;50.596;30.466;2023-07-13T12:21:52;98859.67;;;30.74;40.55
63883;BME280;50047;50.596;30.466;2023-07-13T12:24:22;98849.17;;;30.90;40.41
63883;BME280;50047;50.596;30.466;2023-07-13T12:26:53;98850.31;;;31.04;40.29
63883;BME280;50047;50.596;30.466;2023-07-13T12:29:21;98852.13;;;31.21;40.14
63883;BME280;50047;50.596;30.466;2023-07-13T12:31:50;98847.56;;;31.30;40.14
63883;BME280;50047;50.596;30.466;2023-07-13T12:34:22;98847.51;;;31.41;40.16
63883;BME280;50047;50.596;30.466;2023-07-13T12:36:53;98836.61;;;31.48;39.94
63883;BME280;50047;50.596;30.466;2023-07-13T12:39:26;98837.02;;;31.45;39.52
63883;BME280;50047;50.596;30.466;2023-07-13T12:42:22;98834.16;;;31.35;39.88
63883;BME280;50047;50.596;30.466;2023-07-13T12:45:21;98826.10;;;31.33;40.23
63883;BME280;50047;50.596;30.466;2023-07-13T12:47:54;98814.80;;;31.25;40.28
63883;BME280;50047;50.596;30.466;2023-07-13T12:50:27;98817.27;;;31.05;40.30
63883;BME280;50047;50.596;30.466;2023-07-13T12:53:02;98819.17;;;30.88;40.66
63883;BME280;50047;50.596;30.466;2023-07-13T12:55:53;98816.16;;;30.83;40.66
63883;BME280;50047;50.596;30.466;2023-07-13T13:00:58;98809.90;;;30.74;40.97
63883;BME280;50047;50.596;30.466;2023-07-13T13:03:29;98808.85;;;30.66;41.20
63883;BME280;50047;50.596;30.466;2023-07-13T13:06:17;98805.61;;;30.67;41.26
63883;BME280;50047;50.596;30.466;2023-07-13T13:08:49;98804.87;;;30.79;41.37
63883;BME280;50047;50.596;30.466;2023-07-13T13:11:19;98798.95;;;30.84;40.96
63883;BME280;50047;50.596;30.466;2023-07-13T13:13:47;98793.45;;;30.84;40.93
63883;BME280;50047;50.596;30.466;2023-07-13T13:18:55;98790.34;;;30.72;41.08
63883;BME280;50047;50.596;30.466;2023-07-13T13:21:25;98780.08;;;30.69;41.34
63883;BME280;50047;50.596;30.466;2023-07-13T13:23:54;98779.92;;;30.72;41.20
63883;BME280;50047;50.596;30.466;2023-07-13T13:26:22;98779.08;;;30.77;41.30
63883;BME280;50047;50.596;30.466;2023-07-13T13:28:50;98781.74;;;30.75;41.11
63883;BME280;50047;50.596;30.466;2023-07-13T13:31:18;98785.27;;;30.64;41.28
63883;BME280;50047;50.596;30.466;2023-07-13T13:33:46;98781.13;;;30.55;41.49
63883;BME280;50047;50.596;30.466;2023-07-13T13:36:17;98777.04;;;30.48;41.84
63883;BME280;50047;50.596;30.466;2023-07-13T13:38:48;98776.66;;;30.63;41.71
63883;BME280;50047;50.596;30.466;2023-07-13T13:41:17;98772.92;;;30.82;41.47
63883;BME280;50047;50.596;30.466;2023-07-13T13:43:44;98768.70;;;30.94;41.16
63883;BME280;50047;50.596;30.466;2023-07-13T13:46:19;98763.04;;;30.98;41.12
63883;BME280;50047;50.596;30.466;2023-07-13T13:48:48;98765.09;;;30.96;41.12
63883;BME280;50047;50.596;30.466;2023-07-13T13:51:20;98762.88;;;30.95;40.98
63883;BME280;50047;50.596;30.466;2023-07-13T13:53:49;98761.85;;;31.00;40.65
63883;BME280;50047;50.596;30.466;2023-07-13T13:56:18;98752.48;;;31.07;40.81